sensor_id;sensor_type;location;lat;lon;timestamp;P1;durP1;ratioP1;P2;durP2;ratioP2
59181;SDS011;45293;44.606;21.176;2023-02-28T00:00:23;27.27;;;14.50;;
59181;SDS011;45293;44.606;21.176;2023-02-28T00:02:49;29.08;;;13.27;;
59181;SDS011;45293;44.606;21.176;2023-02-28T00:05:17;34.03;;;15.50;;
59181;SDS011;45293;44.606;21.176;2023-02-28T00:07:44;31.98;;;14.55;;
59181;SDS011;45293;44.606;21.176;2023-02-28T00:10:14;28.90;;;14.35;;
59181;SDS011;45293;44.606;21.176;2023-02-28T00:12:49;33.97;;;14.30;;
59181;SDS011;45293;44.606;21.176;2023-02-28T00:15:15;26.45;;;13.55;;
59181;SDS011;45293;44.606;21.176;2023-02-28T00:17:42;28.17;;;14.23;;
59181;SDS011;45293;44.606;21.176;2023-02-28T00:20:08;28.75;;;13.68;;
59181;SDS011;45293;44.606;21.176;2023-02-28T00:22:40;29.63;;;14.85;;
59181;SDS011;45293;44.606;21.176;2023-02-28T00:25:07;33.10;;;15.93;;
59181;SDS011;45293;44.606;21.176;2023-02-28T00:27:34;33.63;;;15.48;;
59181;SDS011;45293;44.606;21.176;2023-02-28T00:30:00;34.40;;;15.55;;
59181;SDS011;45293;44.606;21.176;2023-02-28T00:32:27;31.75;;;15.07;;
59181;SDS011;45293;44.606;21.176;2023-02-28T00:34:53;30.55;;;13.88;;
59181;SDS011;45293;44.606;21.176;2023-02-28T00:37:19;38.25;;;17.55;;
59181;SDS011;45293;44.606;21.176;2023-02-28T00:39:46;46.92;;;21.13;;
59181;SDS011;45293;44.606;21.176;2023-02-28T00:42:12;42.75;;;18.17;;
59181;SDS011;45293;44.606;21.176;2023-02-28T00:44:38;42.63;;;21.23;;
59181;SDS011;45293;44.606;21.176;2023-02-28T00:47:04;32.25;;;14.50;;
59181;SDS011;45293;44.606;21.176;2023-02-28T00:49:30;28.50;;;13.60;;
59181;SDS011;45293;44.606;21.176;2023-02-28T00:51:56;22.05;;;11.95;;
59181;SDS011;45293;44.606;21.176;2023-02-28T00:54:23;22.30;;;12.18;;
59181;SDS011;45293;44.606;21.176;2023-02-28T00:56:49;24.08;;;12.07;;
59181;SDS011;45293;44.606;21.176;2023-02-28T00:59:16;26.95;;;12.35;;
59181;SDS011;45293;44.606;21.176;2023-02-28T01:01:43;23.40;;;10.68;;
59181;SDS011;45293;44.606;21.176;2023-02-28T01:04:09;31.98;;;12.90;;
59181;SDS011;45293;44.606;21.176;2023-02-28T01:06:35;24.48;;;12.00;;
59181;SDS011;45293;44.606;21.176;2023-02-28T01:09:02;25.48;;;11.90;;
59181;SDS011;45293;44.606;21.176;2023-02-28T01:11:29;19.88;;;11.20;;
59181;SDS011;45293;44.606;21.176;2023-02-28T01:13:55;27.63;;;12.68;;
59181;SDS011;45293;44.606;21.176;2023-02-28T01:16:21;32.35;;;13.90;;
59181;SDS011;45293;44.606;21.176;2023-02-28T01:18:47;43.45;;;17.10;;
59181;SDS011;45293;44.606;21.176;2023-02-28T01:21:15;35.25;;;16.73;;
59181;SDS011;45293;44.606;21.176;2023-02-28T01:23:41;42.60;;;16.85;;
59181;SDS011;45293;44.606;21.176;2023-02-28T01:26:09;42.30;;;15.45;;
59181;SDS011;45293;44.606;21.176;2023-02-28T01:28:35;26.27;;;12.32;;
59181;SDS011;45293;44.606;21.176;2023-02-28T01:31:01;33.50;;;13.38;;
59181;SDS011;45293;44.606;21.176;2023-02-28T01:33:28;24.20;;;11.88;;
59181;SDS011;45293;44.606;21.176;2023-02-28T01:36:29;25.25;;;12.38;;
59181;SDS011;45293;44.606;21.176;2023-02-28T01:38:46;23.30;;;12.40;;
59181;SDS011;45293;44.606;21.176;2023-02-28T01:41:17;24.90;;;12.07;;
59181;SDS011;45293;44.606;21.176;2023-02-28T01:46:10;24.58;;;11.73;;
59181;SDS011;45293;44.606;21.176;2023-02-28T01:48:38;24.90;;;11.63;;
59181;SDS011;45293;44.606;21.176;2023-02-28T01:51:08;23.67;;;10.57;;
59181;SDS011;45293;44.606;21.176;2023-02-28T01:53:41;23.02;;;11.07;;
59181;SDS011;45293;44.606;21.176;2023-02-28T01:56:08;22.33;;;11.07;;
59181;SDS011;45293;44.606;21.176;2023-02-28T01:58:36;22.13;;;9.85;;
59181;SDS011;45293;44.606;21.176;2023-02-28T02:01:02;25.48;;;11.48;;
59181;SDS011;45293;44.606;21.176;2023-02-28T02:03:29;23.27;;;10.75;;
59181;SDS011;45293;44.606;21.176;2023-02-28T02:05:56;23.10;;;11.80;;
59181;SDS011;45293;44.606;21.176;2023-02-28T02:08:23;21.67;;;10.80;;
59181;SDS011;45293;44.606;21.176;2023-02-28T02:10:50;22.85;;;11.93;;
59181;SDS011;45293;44.606;21.176;2023-02-28T02:13:28;29.00;;;12.88;;
59181;SDS011;45293;44.606;21.176;2023-02-28T02:18:49;27.13;;;12.18;;
59181;SDS011;45293;44.606;21.176;2023-02-28T02:21:40;21.77;;;11.77;;
59181;SDS011;45293;44.606;21.176;2023-02-28T02:27:03;22.10;;;11.68;;
59181;SDS011;45293;44.606;21.176;2023-02-28T02:32:08;26.77;;;12.65;;
59181;SDS011;45293;44.606;21.176;2023-02-28T02:34:41;27.08;;;13.88;;
59181;SDS011;45293;44.606;21.176;2023-02-28T02:37:10;26.02;;;13.40;;
59181;SDS011;45293;44.606;21.176;2023-02-28T02:42:10;29.27;;;13.10;;
59181;SDS011;45293;44.606;21.176;2023-02-28T02:44:40;27.85;;;13.43;;
59181;SDS011;45293;44.606;21.176;2023-02-28T02:47:10;28.20;;;13.13;;
59181;SDS011;45293;44.606;21.176;2023-02-28T02:49:38;27.75;;;14.88;;
59181;SDS011;45293;44.606;21.176;2023-02-28T02:52:06;29.85;;;12.93;;
59181;SDS011;45293;44.606;21.176;2023-02-28T02:54:35;35.13;;;16.65;;
59181;SDS011;45293;44.606;21.176;2023-02-28T02:57:03;31.23;;;14.85;;
59181;SDS011;45293;44.606;21.176;2023-02-28T02:59:30;33.28;;;16.08;;
59181;SDS011;45293;44.606;21.176;2023-02-28T03:02:01;34.22;;;15.55;;
59181;SDS011;45293;44.606;21.176;2023-02-28T03:04:30;39.97;;;18.95;;
59181;SDS011;45293;44.606;21.176;2023-02-28T03:06:58;37.33;;;16.73;;
59181;SDS011;45293;44.606;21.176;2023-02-28T03:09:24;35.75;;;16.45;;
59181;SDS011;45293;44.606;21.176;2023-02-28T03:11:52;36.42;;;17.10;;
59181;SDS011;45293;44.606;21.176;2023-02-28T03:25:05;35.05;;;15.30;;
59181;SDS011;45293;44.606;21.176;2023-02-28T03:27:39;71.97;;;28.60;;
59181;SDS011;45293;44.606;21.176;2023-02-28T03:30:09;82.40;;;30.00;;
59181;SDS011;45293;44.606;21.176;2023-02-28T03:32:40;80.72;;;28.58;;
59181;SDS011;45293;44.606;21.176;2023-02-28T03:37:35;71.05;;;29.02;;
59181;SDS011;45293;44.606;21.176;2023-02-28T03:40:05;52.03;;;22.45;;
59181;SDS011;45293;44.606;21.176;2023-02-28T03:42:33;45.53;;;18.42;;
59181;SDS011;45293;44.606;21.176;2023-02-28T03:45:02;32.50;;;16.05;;
59181;SDS011;45293;44.606;21.176;2023-02-28T03:47:42;32.20;;;15.98;;
59181;SDS011;45293;44.606;21.176;2023-02-28T03:53:20;32.63;;;15.52;;
59181;SDS011;45293;44.606;21.176;2023-02-28T03:55:49;32.70;;;16.15;;
59181;SDS011;45293;44.606;21.176;2023-02-28T03:58:22;33.13;;;15.23;;
59181;SDS011;45293;44.606;21.176;2023-02-28T04:01:01;36.45;;;16.67;;
59181;SDS011;45293;44.606;21.176;2023-02-28T04:03:33;36.15;;;15.77;;
59181;SDS011;45293;44.606;21.176;2023-02-28T04:05:59;39.72;;;15.43;;
59181;SDS011;45293;44.606;21.176;2023-02-28T04:08:25;33.25;;;15.63;;
59181;SDS011;45293;44.606;21.176;2023-02-28T04:10:54;36.75;;;15.70;;
59181;SDS011;45293;44.606;21.176;2023-02-28T04:13:22;38.70;;;16.02;;
59181;SDS011;45293;44.606;21.176;2023-02-28T04:15:48;35.15;;;17.63;;
59181;SDS011;45293;44.606;21.176;2023-02-28T04:18:14;36.85;;;16.48;;
59181;SDS011;45293;44.606;21.176;2023-02-28T04:20:41;41.00;;;17.10;;
59181;SDS011;45293;44.606;21.176;2023-02-28T04:23:07;40.38;;;17.50;;
59181;SDS011;45293;44.606;21.176;2023-02-28T04:25:34;32.15;;;15.55;;
59181;SDS011;45293;44.606;21.176;2023-02-28T04:28:02;41.50;;;18.98;;
59181;SDS011;45293;44.606;21.176;2023-02-28T04:30:29;56.97;;;25.23;;
59181;SDS011;45293;44.606;21.176;2023-02-28T04:32:57;64.53;;;25.20;;
59181;SDS011;45293;44.606;21.176;2023-02-28T04:35:23;47.05;;;20.50;;
59181;SDS011;45293;44.606;21.176;2023-02-28T04:37:49;43.38;;;17.55;;
59181;SDS011;45293;44.606;21.176;2023-02-28T04:40:15;35.75;;;16.75;;
59181;SDS011;45293;44.606;21.176;2023-02-28T04:42:41;41.08;;;17.33;;
59181;SDS011;45293;44.606;21.176;2023-02-28T04:45:08;41.13;;;17.05;;
59181;SDS011;45293;44.606;21.176;2023-02-28T04:47:35;41.17;;;16.17;;
59181;SDS011;45293;44.606;21.176;2023-02-28T04:50:01;39.50;;;16.55;;
59181;SDS011;45293;44.606;21.176;2023-02-28T04:52:28;37.92;;;16.38;;
59181;SDS011;45293;44.606;21.176;2023-02-28T04:54:54;41.08;;;16.45;;
59181;SDS011;45293;44.606;21.176;2023-02-28T04:57:20;34.90;;;15.25;;
59181;SDS011;45293;44.606;21.176;2023-02-28T04:59:47;42.53;;;17.08;;
59181;SDS011;45293;44.606;21.176;2023-02-28T05:02:13;34.88;;;15.70;;
59181;SDS011;45293;44.606;21.176;2023-02-28T05:04:39;40.95;;;16.27;;
59181;SDS011;45293;44.606;21.176;2023-02-28T05:07:05;32.85;;;14.93;;
59181;SDS011;45293;44.606;21.176;2023-02-28T05:09:31;42.13;;;18.50;;
59181;SDS011;45293;44.606;21.176;2023-02-28T05:11:58;42.38;;;17.25;;
59181;SDS011;45293;44.606;21.176;2023-02-28T05:14:24;42.17;;;15.68;;
59181;SDS011;45293;44.606;21.176;2023-02-28T05:16:50;29.98;;;14.90;;
59181;SDS011;45293;44.606;21.176;2023-02-28T05:19:16;35.38;;;15.23;;
59181;SDS011;45293;44.606;21.176;2023-02-28T05:21:52;35.97;;;14.80;;
59181;SDS011;45293;44.606;21.176;2023-02-28T05:24:20;36.17;;;16.13;;
59181;SDS011;45293;44.606;21.176;2023-02-28T05:26:50;34.33;;;17.00;;
59181;SDS011;45293;44.606;21.176;2023-02-28T05:29:17;33.65;;;15.70;;
59181;SDS011;45293;44.606;21.176;2023-02-28T05:31:44;49.20;;;18.02;;
59181;SDS011;45293;44.606;21.176;2023-02-28T05:34:10;38.55;;;18.70;;
59181;SDS011;45293;44.606;21.176;2023-02-28T05:36:43;44.67;;;19.98;;
59181;SDS011;45293;44.606;21.176;2023-02-28T05:50:12;33.85;;;15.80;;
59181;SDS011;45293;44.606;21.176;2023-02-28T05:52:54;31.48;;;14.35;;
59181;SDS011;45293;44.606;21.176;2023-02-28T16:56:17;60.42;;;22.60;;
59181;SDS011;45293;44.606;21.176;2023-02-28T16:58:44;66.85;;;23.15;;
59181;SDS011;45293;44.606;21.176;2023-02-28T17:01:10;61.78;;;23.08;;
59181;SDS011;45293;44.606;21.176;2023-02-28T17:03:37;66.22;;;25.50;;
59181;SDS011;45293;44.606;21.176;2023-02-28T17:06:05;73.53;;;28.58;;
59181;SDS011;45293;44.606;21.176;2023-02-28T17:08:31;80.03;;;30.48;;
59181;SDS011;45293;44.606;21.176;2023-02-28T17:10:58;59.47;;;24.35;;
59181;SDS011;45293;44.606;21.176;2023-02-28T17:13:27;69.68;;;25.65;;
59181;SDS011;45293;44.606;21.176;2023-02-28T17:15:53;75.43;;;27.95;;
59181;SDS011;45293;44.606;21.176;2023-02-28T17:18:20;69.22;;;26.83;;
59181;SDS011;45293;44.606;21.176;2023-02-28T17:20:46;69.07;;;24.55;;
59181;SDS011;45293;44.606;21.176;2023-02-28T17:23:13;61.80;;;24.45;;
59181;SDS011;45293;44.606;21.176;2023-02-28T17:25:39;65.70;;;29.17;;
59181;SDS011;45293;44.606;21.176;2023-02-28T17:28:05;86.43;;;30.67;;
59181;SDS011;45293;44.606;21.176;2023-02-28T17:30:32;66.85;;;28.60;;
59181;SDS011;45293;44.606;21.176;2023-02-28T17:32:59;78.57;;;31.13;;
59181;SDS011;45293;44.606;21.176;2023-02-28T17:35:27;62.13;;;27.90;;
59181;SDS011;45293;44.606;21.176;2023-02-28T17:37:53;72.90;;;28.88;;
59181;SDS011;45293;44.606;21.176;2023-02-28T17:40:20;71.10;;;29.52;;
59181;SDS011;45293;44.606;21.176;2023-02-28T17:42:47;72.43;;;27.20;;
59181;SDS011;45293;44.606;21.176;2023-02-28T17:45:19;71.40;;;29.70;;
59181;SDS011;45293;44.606;21.176;2023-02-28T17:48:14;67.03;;;29.73;;
59181;SDS011;45293;44.606;21.176;2023-02-28T17:50:44;58.75;;;24.30;;
59181;SDS011;45293;44.606;21.176;2023-02-28T17:53:14;60.78;;;26.08;;
59181;SDS011;45293;44.606;21.176;2023-02-28T17:55:41;77.57;;;30.65;;
59181;SDS011;45293;44.606;21.176;2023-02-28T17:58:09;77.35;;;30.50;;
59181;SDS011;45293;44.606;21.176;2023-02-28T18:06:02;69.95;;;31.80;;
59181;SDS011;45293;44.606;21.176;2023-02-28T18:11:25;78.88;;;30.90;;
59181;SDS011;45293;44.606;21.176;2023-02-28T18:14:06;73.72;;;33.30;;
59181;SDS011;45293;44.606;21.176;2023-02-28T18:16:32;79.57;;;33.17;;
59181;SDS011;45293;44.606;21.176;2023-02-28T18:18:58;75.82;;;32.83;;
59181;SDS011;45293;44.606;21.176;2023-02-28T18:21:27;84.47;;;38.13;;
59181;SDS011;45293;44.606;21.176;2023-02-28T18:23:55;71.72;;;34.70;;
59181;SDS011;45293;44.606;21.176;2023-02-28T18:26:23;85.60;;;36.70;;
59181;SDS011;45293;44.606;21.176;2023-02-28T18:28:51;66.95;;;30.60;;
59181;SDS011;45293;44.606;21.176;2023-02-28T18:31:19;61.15;;;28.30;;
59181;SDS011;45293;44.606;21.176;2023-02-28T18:33:49;65.38;;;30.13;;
59181;SDS011;45293;44.606;21.176;2023-02-28T18:36:22;67.68;;;32.83;;
59181;SDS011;45293;44.606;21.176;2023-02-28T18:38:49;66.90;;;31.13;;
59181;SDS011;45293;44.606;21.176;2023-02-28T18:41:16;67.18;;;27.67;;
59181;SDS011;45293;44.606;21.176;2023-02-28T18:43:47;74.07;;;33.13;;
59181;SDS011;45293;44.606;21.176;2023-02-28T18:46:27;72.40;;;32.20;;
59181;SDS011;45293;44.606;21.176;2023-02-28T18:48:54;67.32;;;30.90;;
59181;SDS011;45293;44.606;21.176;2023-02-28T18:51:28;63.13;;;28.98;;
59181;SDS011;45293;44.606;21.176;2023-02-28T18:53:55;62.15;;;28.08;;
59181;SDS011;45293;44.606;21.176;2023-02-28T18:56:23;61.88;;;28.90;;
59181;SDS011;45293;44.606;21.176;2023-02-28T18:58:52;73.68;;;31.27;;
59181;SDS011;45293;44.606;21.176;2023-02-28T19:01:23;52.30;;;25.45;;
59181;SDS011;45293;44.606;21.176;2023-02-28T19:03:55;48.72;;;22.50;;
59181;SDS011;45293;44.606;21.176;2023-02-28T19:06:21;51.15;;;24.00;;
59181;SDS011;45293;44.606;21.176;2023-02-28T19:08:51;49.50;;;24.30;;
59181;SDS011;45293;44.606;21.176;2023-02-28T19:11:18;51.25;;;25.58;;
59181;SDS011;45293;44.606;21.176;2023-02-28T19:13:44;61.20;;;23.98;;
59181;SDS011;45293;44.606;21.176;2023-02-28T19:16:17;66.88;;;31.52;;
59181;SDS011;45293;44.606;21.176;2023-02-28T19:18:48;47.20;;;23.48;;
59181;SDS011;45293;44.606;21.176;2023-02-28T19:21:15;54.58;;;24.67;;
59181;SDS011;45293;44.606;21.176;2023-02-28T19:23:43;50.97;;;24.02;;
59181;SDS011;45293;44.606;21.176;2023-02-28T19:26:11;46.42;;;22.60;;
59181;SDS011;45293;44.606;21.176;2023-02-28T19:28:37;55.72;;;26.58;;
59181;SDS011;45293;44.606;21.176;2023-02-28T19:31:04;67.93;;;27.42;;
59181;SDS011;45293;44.606;21.176;2023-02-28T19:33:30;77.70;;;32.38;;
59181;SDS011;45293;44.606;21.176;2023-02-28T19:36:00;83.43;;;35.22;;
59181;SDS011;45293;44.606;21.176;2023-02-28T19:38:27;72.57;;;33.00;;
59181;SDS011;45293;44.606;21.176;2023-02-28T19:41:16;98.53;;;38.42;;
59181;SDS011;45293;44.606;21.176;2023-02-28T19:51:41;112.65;;;40.95;;
59181;SDS011;45293;44.606;21.176;2023-02-28T19:54:08;75.93;;;35.42;;
59181;SDS011;45293;44.606;21.176;2023-02-28T20:02:01;55.70;;;27.05;;
59181;SDS011;45293;44.606;21.176;2023-02-28T20:04:27;53.90;;;27.75;;
59181;SDS011;45293;44.606;21.176;2023-02-28T20:06:54;66.85;;;30.83;;
59181;SDS011;45293;44.606;21.176;2023-02-28T20:09:36;63.42;;;31.70;;
59181;SDS011;45293;44.606;21.176;2023-02-28T20:12:08;68.97;;;30.17;;
59181;SDS011;45293;44.606;21.176;2023-02-28T20:14:35;56.55;;;28.38;;
59181;SDS011;45293;44.606;21.176;2023-02-28T20:19:40;63.10;;;31.33;;
59181;SDS011;45293;44.606;21.176;2023-02-28T20:22:13;69.30;;;30.23;;
59181;SDS011;45293;44.606;21.176;2023-02-28T20:40:24;83.97;;;40.13;;
59181;SDS011;45293;44.606;21.176;2023-02-28T20:42:56;89.55;;;37.75;;
59181;SDS011;45293;44.606;21.176;2023-02-28T20:46:00;107.57;;;45.75;;
59181;SDS011;45293;44.606;21.176;2023-02-28T20:48:30;104.72;;;44.35;;
59181;SDS011;45293;44.606;21.176;2023-02-28T20:51:12;103.03;;;44.13;;
59181;SDS011;45293;44.606;21.176;2023-02-28T20:58:54;92.75;;;40.78;;
59181;SDS011;45293;44.606;21.176;2023-02-28T21:01:55;94.70;;;43.35;;
59181;SDS011;45293;44.606;21.176;2023-02-28T21:04:21;87.80;;;40.80;;
59181;SDS011;45293;44.606;21.176;2023-02-28T21:06:49;100.50;;;44.85;;
59181;SDS011;45293;44.606;21.176;2023-02-28T21:09:16;88.68;;;42.28;;
59181;SDS011;45293;44.606;21.176;2023-02-28T21:19:33;90.90;;;41.10;;
59181;SDS011;45293;44.606;21.176;2023-02-28T21:22:00;97.28;;;43.47;;
59181;SDS011;45293;44.606;21.176;2023-02-28T21:24:31;100.55;;;43.80;;
59181;SDS011;45293;44.606;21.176;2023-02-28T21:27:11;128.23;;;56.05;;
59181;SDS011;45293;44.606;21.176;2023-02-28T21:29:38;100.35;;;45.75;;
59181;SDS011;45293;44.606;21.176;2023-02-28T21:32:05;116.55;;;53.42;;
59181;SDS011;45293;44.606;21.176;2023-02-28T21:37:09;130.20;;;58.35;;
59181;SDS011;45293;44.606;21.176;2023-02-28T21:39:35;127.20;;;55.67;;
59181;SDS011;45293;44.606;21.176;2023-02-28T21:42:01;130.18;;;56.38;;
59181;SDS011;45293;44.606;21.176;2023-02-28T21:44:28;112.72;;;52.20;;
59181;SDS011;45293;44.606;21.176;2023-02-28T21:46:54;106.78;;;50.60;;
59181;SDS011;45293;44.606;21.176;2023-02-28T21:49:22;115.93;;;50.55;;
59181;SDS011;45293;44.606;21.176;2023-02-28T21:51:51;131.68;;;53.20;;
59181;SDS011;45293;44.606;21.176;2023-02-28T21:54:17;125.95;;;56.30;;
59181;SDS011;45293;44.606;21.176;2023-02-28T21:56:43;159.73;;;64.53;;
59181;SDS011;45293;44.606;21.176;2023-02-28T21:59:09;152.63;;;66.40;;
59181;SDS011;45293;44.606;21.176;2023-02-28T22:01:36;159.98;;;64.63;;
59181;SDS011;45293;44.606;21.176;2023-02-28T22:04:05;94.57;;;44.58;;
59181;SDS011;45293;44.606;21.176;2023-02-28T22:06:32;82.47;;;37.17;;
59181;SDS011;45293;44.606;21.176;2023-02-28T22:08:59;66.20;;;29.23;;
59181;SDS011;45293;44.606;21.176;2023-02-28T22:11:26;56.15;;;27.52;;
59181;SDS011;45293;44.606;21.176;2023-02-28T22:13:53;54.85;;;27.27;;
59181;SDS011;45293;44.606;21.176;2023-02-28T22:16:20;59.65;;;26.95;;
59181;SDS011;45293;44.606;21.176;2023-02-28T22:18:46;56.63;;;24.85;;
59181;SDS011;45293;44.606;21.176;2023-02-28T22:21:13;65.13;;;27.10;;
59181;SDS011;45293;44.606;21.176;2023-02-28T22:23:39;66.28;;;28.77;;
59181;SDS011;45293;44.606;21.176;2023-02-28T22:26:07;67.00;;;30.38;;
59181;SDS011;45293;44.606;21.176;2023-02-28T22:28:34;61.33;;;30.95;;
59181;SDS011;45293;44.606;21.176;2023-02-28T22:31:00;77.70;;;35.72;;
59181;SDS011;45293;44.606;21.176;2023-02-28T22:33:26;74.60;;;35.45;;
59181;SDS011;45293;44.606;21.176;2023-02-28T22:35:52;70.45;;;33.80;;
59181;SDS011;45293;44.606;21.176;2023-02-28T22:38:19;74.15;;;32.30;;
59181;SDS011;45293;44.606;21.176;2023-02-28T22:40:45;55.17;;;26.95;;
59181;SDS011;45293;44.606;21.176;2023-02-28T22:43:11;58.30;;;28.33;;
59181;SDS011;45293;44.606;21.176;2023-02-28T22:45:37;52.95;;;25.70;;
59181;SDS011;45293;44.606;21.176;2023-02-28T22:48:04;54.28;;;24.95;;
59181;SDS011;45293;44.606;21.176;2023-02-28T22:50:31;54.72;;;24.05;;
59181;SDS011;45293;44.606;21.176;2023-02-28T22:52:57;51.00;;;23.30;;
59181;SDS011;45293;44.606;21.176;2023-02-28T22:55:23;47.65;;;22.45;;
59181;SDS011;45293;44.606;21.176;2023-02-28T22:57:49;60.65;;;21.77;;
59181;SDS011;45293;44.606;21.176;2023-02-28T23:00:15;57.90;;;24.70;;
59181;SDS011;45293;44.606;21.176;2023-02-28T23:02:42;45.58;;;21.25;;
59181;SDS011;45293;44.606;21.176;2023-02-28T23:05:09;45.42;;;21.38;;
59181;SDS011;45293;44.606;21.176;2023-02-28T23:07:35;45.65;;;21.02;;
59181;SDS011;45293;44.606;21.176;2023-02-28T23:10:06;41.38;;;20.60;;
59181;SDS011;45293;44.606;21.176;2023-02-28T23:12:32;65.03;;;29.48;;
59181;SDS011;45293;44.606;21.176;2023-02-28T23:14:58;93.68;;;41.03;;
59181;SDS011;45293;44.606;21.176;2023-02-28T23:17:24;102.53;;;42.80;;
59181;SDS011;45293;44.606;21.176;2023-02-28T23:19:50;102.97;;;41.53;;
59181;SDS011;45293;44.606;21.176;2023-02-28T23:22:16;100.18;;;46.20;;
59181;SDS011;45293;44.606;21.176;2023-02-28T23:24:42;123.00;;;53.92;;
59181;SDS011;45293;44.606;21.176;2023-02-28T23:27:09;113.70;;;48.22;;
59181;SDS011;45293;44.606;21.176;2023-02-28T23:29:35;119.28;;;52.15;;
59181;SDS011;45293;44.606;21.176;2023-02-28T23:32:01;119.80;;;50.95;;
59181;SDS011;45293;44.606;21.176;2023-02-28T23:34:27;145.65;;;60.47;;
59181;SDS011;45293;44.606;21.176;2023-02-28T23:36:58;154.02;;;69.28;;
59181;SDS011;45293;44.606;21.176;2023-02-28T23:39:24;121.57;;;57.78;;
59181;SDS011;45293;44.606;21.176;2023-02-28T23:41:51;117.10;;;54.10;;
59181;SDS011;45293;44.606;21.176;2023-02-28T23:44:17;144.55;;;60.15;;
59181;SDS011;45293;44.606;21.176;2023-02-28T23:46:44;106.95;;;49.28;;
59181;SDS011;45293;44.606;21.176;2023-02-28T23:49:10;136.18;;;57.45;;
59181;SDS011;45293;44.606;21.176;2023-02-28T23:51:36;129.30;;;56.40;;
59181;SDS011;45293;44.606;21.176;2023-02-28T23:54:03;106.05;;;44.72;;
59181;SDS011;45293;44.606;21.176;2023-02-28T23:56:29;108.60;;;46.53;;
59181;SDS011;45293;44.606;21.176;2023-02-28T23:58:55;75.28;;;34.42;;
